createdAt,value
2019-02-02T00:01:00.364Z,96.00
2019-02-02T00:03:29.540Z,90.27
2019-02-02T00:06:01.173Z,97.20
2019-02-02T00:08:30.349Z,101.53
2019-02-02T00:10:59.513Z,94.97
2019-02-02T00:13:29.954Z,103.57
2019-02-02T00:15:59.268Z,93.73
2019-02-02T00:18:28.395Z,91.80
2019-02-02T00:20:57.671Z,92.27
2019-02-02T00:23:26.928Z,91.47
2019-02-02T00:25:56.064Z,89.43
2019-02-02T00:28:25.288Z,93.63
2019-02-02T00:30:54.486Z,92.70
2019-02-02T00:33:23.716Z,100.07
2019-02-02T00:35:55.348Z,102.93
2019-02-02T00:38:24.580Z,92.93
2019-02-02T00:40:53.855Z,97.37
2019-02-02T00:43:25.536Z,97.27
2019-02-02T00:45:54.764Z,97.30
2019-02-02T00:48:25.400Z,96.40
2019-02-02T00:50:54.596Z,86.97
2019-02-02T00:53:23.800Z,91.17
2019-02-02T00:55:53.033Z,94.30
2019-02-02T00:58:22.231Z,93.63
2019-02-02T01:00:51.407Z,86.20
2019-02-02T01:03:20.862Z,94.83
2019-02-02T01:05:50.061Z,93.17
2019-02-02T01:08:19.293Z,98.37
2019-02-02T01:10:48.462Z,89.97
2019-02-02T01:13:17.697Z,91.83
2019-02-02T01:15:46.872Z,95.20
2019-02-02T01:18:16.085Z,93.97
2019-02-02T01:20:45.254Z,83.73
2019-02-02T01:23:14.492Z,89.60
2019-02-02T01:25:43.676Z,83.13
2019-02-02T01:28:12.924Z,84.87
2019-02-02T01:30:42.116Z,85.90
2019-02-02T01:33:11.304Z,76.63
2019-02-02T01:35:41.762Z,79.40
2019-02-02T01:38:10.938Z,69.80
2019-02-02T01:40:40.129Z,76.73
2019-02-02T01:43:10.590Z,66.50
2019-02-02T01:45:39.770Z,68.87
2019-02-02T01:48:08.957Z,67.57
2019-02-02T01:50:38.156Z,68.13
2019-02-02T01:53:07.385Z,69.33
2019-02-02T01:55:36.628Z,68.03
2019-02-02T01:58:15.984Z,68.07
2019-02-02T02:00:35.036Z,61.00
2019-02-02T02:03:04.337Z,68.33
2019-02-02T02:05:33.518Z,71.37
2019-02-02T02:08:02.698Z,67.47
2019-02-02T02:10:31.997Z,67.53
2019-02-02T02:13:01.206Z,67.30
2019-02-02T02:15:30.425Z,65.50
2019-02-02T02:17:59.616Z,69.67
2019-02-02T02:20:28.941Z,61.03
2019-02-02T02:22:58.137Z,69.40
2019-02-02T02:25:27.300Z,67.07
2019-02-02T02:27:56.498Z,68.17
2019-02-02T02:30:25.689Z,67.13
2019-02-02T02:32:54.891Z,68.50
2019-02-02T02:35:24.114Z,73.30
2019-02-02T02:37:53.316Z,64.90
2019-02-02T02:40:22.541Z,67.23
2019-02-02T02:42:51.923Z,72.10
2019-02-02T02:45:20.989Z,66.63
2019-02-02T02:47:51.669Z,66.70
2019-02-02T02:50:20.920Z,66.97
2019-02-02T02:52:50.093Z,71.20
2019-02-02T02:55:19.302Z,69.50
2019-02-02T02:57:48.504Z,70.50
2019-02-02T03:00:20.613Z,71.53
2019-02-02T03:02:51.192Z,74.53
2019-02-02T03:05:20.376Z,71.47
2019-02-02T03:07:49.912Z,69.30
2019-02-02T03:10:19.537Z,69.17
2019-02-02T03:12:48.754Z,63.87
2019-02-02T03:15:17.936Z,65.97
2019-02-02T03:17:47.170Z,65.87
2019-02-02T03:20:16.354Z,65.97
2019-02-02T03:22:48.094Z,64.40
2019-02-02T03:25:19.084Z,62.70
2019-02-02T03:27:48.379Z,57.37
2019-02-02T03:30:18.046Z,56.40
2019-02-02T03:32:47.234Z,62.57
2019-02-02T03:35:17.033Z,57.20
2019-02-02T03:37:46.207Z,57.53
2019-02-02T03:40:16.341Z,60.00
2019-02-02T03:42:45.517Z,60.33
2019-02-02T03:45:15.549Z,55.80
2019-02-02T03:47:44.734Z,60.40
2019-02-02T03:50:13.978Z,59.17
2019-02-02T03:52:43.172Z,60.53
2019-02-02T03:55:12.631Z,65.07
2019-02-02T03:57:41.885Z,61.60
2019-02-02T04:00:12.982Z,59.03
2019-02-02T04:02:42.197Z,62.53
2019-02-02T04:05:13.629Z,61.37
2019-02-02T04:07:43.882Z,62.57
2019-02-02T04:10:13.092Z,65.27
2019-02-02T04:12:42.314Z,59.40
2019-02-02T04:15:11.572Z,55.97
2019-02-02T04:17:40.788Z,64.00
2019-02-02T04:20:11.350Z,63.17
2019-02-02T04:22:40.576Z,62.10
2019-02-02T04:25:09.806Z,66.67
2019-02-02T04:27:39.304Z,58.83
2019-02-02T04:30:09.942Z,69.93
2019-02-02T04:32:39.166Z,66.47
2019-02-02T04:35:10.095Z,63.97
2019-02-02T04:37:39.279Z,70.20
2019-02-02T04:40:08.622Z,76.63
2019-02-02T04:42:37.884Z,69.30
2019-02-02T04:45:07.636Z,74.93
2019-02-02T04:47:36.812Z,73.10
2019-02-02T04:50:07.085Z,77.37
2019-02-02T04:52:36.373Z,82.80
2019-02-02T04:55:05.517Z,73.77
2019-02-02T04:57:34.793Z,84.57
2019-02-02T05:00:04.356Z,86.47
2019-02-02T05:02:33.534Z,87.87
2019-02-02T05:05:02.709Z,79.03
2019-02-02T05:07:31.906Z,85.10
2019-02-02T05:10:02.340Z,85.67
2019-02-02T05:12:31.505Z,83.40
2019-02-02T05:15:00.729Z,79.57
2019-02-02T05:17:29.967Z,85.23
2019-02-02T05:19:59.145Z,80.67
2019-02-02T05:22:28.320Z,81.80
2019-02-02T05:24:57.511Z,86.47
2019-02-02T05:27:26.712Z,85.67
2019-02-02T05:29:55.893Z,78.90
2019-02-02T05:32:25.192Z,83.10
2019-02-02T05:34:54.378Z,81.43
2019-02-02T05:37:23.540Z,95.80
2019-02-02T05:39:52.736Z,87.30
2019-02-02T05:42:21.903Z,95.40
2019-02-02T05:44:51.108Z,100.90
2019-02-02T05:47:20.274Z,94.27
2019-02-02T05:49:50.709Z,92.47
2019-02-02T05:52:19.880Z,85.40
2019-02-02T05:54:49.077Z,100.40
2019-02-02T05:57:19.563Z,95.47
2019-02-02T05:59:52.991Z,93.70
2019-02-02T06:02:17.904Z,93.40
2019-02-02T06:04:47.093Z,88.53
2019-02-02T06:07:16.293Z,84.70
2019-02-02T06:09:45.490Z,75.40
2019-02-02T06:12:14.754Z,78.27
2019-02-02T06:14:45.176Z,66.10
2019-02-02T06:17:14.342Z,67.63
2019-02-02T06:19:44.800Z,70.30
2019-02-02T06:22:13.964Z,64.50
2019-02-02T06:24:43.170Z,71.53
2019-02-02T06:27:12.358Z,73.13
2019-02-02T06:29:41.529Z,60.17
2019-02-02T06:32:12.255Z,62.37
2019-02-02T06:34:40.043Z,64.53
2019-02-02T06:37:09.239Z,64.20
2019-02-02T06:39:38.416Z,65.87
2019-02-02T06:42:07.591Z,72.00
2019-02-02T06:44:36.778Z,60.13
2019-02-02T06:47:05.949Z,58.47
2019-02-02T06:49:35.143Z,59.67
2019-02-02T06:52:04.329Z,50.77
2019-02-02T06:54:33.898Z,48.30
2019-02-02T06:57:02.721Z,52.50
2019-02-02T06:59:31.948Z,55.73
2019-02-02T07:02:01.163Z,56.23
2019-02-02T07:04:30.348Z,53.43
2019-02-02T07:07:01.944Z,65.07
2019-02-02T07:09:31.135Z,61.83
2019-02-02T07:12:00.348Z,63.53
2019-02-02T07:14:29.573Z,63.27
2019-02-02T07:16:58.744Z,61.33
2019-02-02T07:19:29.180Z,68.67
2019-02-02T07:21:57.945Z,65.80
2019-02-02T07:24:27.270Z,63.40
2019-02-02T07:26:57.732Z,64.40
2019-02-02T07:29:26.980Z,72.63
2019-02-02T07:31:56.175Z,74.73
2019-02-02T07:34:26.654Z,67.33
2019-02-02T07:36:55.826Z,66.53
2019-02-02T07:39:25.009Z,65.23
2019-02-02T07:42:00.644Z,67.07
2019-02-02T07:44:29.876Z,66.73
2019-02-02T07:46:59.067Z,67.10
2019-02-02T07:49:28.255Z,83.20
2019-02-02T07:51:59.614Z,75.77
2019-02-02T07:54:28.838Z,77.03
2019-02-02T07:56:58.050Z,72.53
2019-02-02T07:59:28.462Z,66.40
2019-02-02T08:01:57.639Z,66.40
2019-02-02T08:04:26.820Z,55.90
2019-02-02T08:06:57.248Z,55.80
2019-02-02T08:09:26.433Z,52.60
2019-02-02T08:11:55.744Z,51.93
2019-02-02T08:14:25.076Z,62.07
2019-02-02T08:16:54.273Z,63.47
2019-02-02T08:19:25.742Z,60.97
2019-02-02T08:21:53.898Z,66.57
2019-02-02T08:24:23.162Z,75.93
2019-02-02T08:26:52.377Z,76.43
2019-02-02T08:29:21.609Z,81.87
2019-02-02T08:31:50.768Z,82.53
2019-02-02T08:34:19.940Z,81.27
2019-02-02T08:36:49.183Z,78.23
2019-02-02T08:39:28.666Z,92.63
2019-02-02T08:41:50.686Z,77.97
2019-02-02T08:44:18.109Z,79.70
2019-02-02T08:46:47.674Z,90.07
2019-02-02T08:49:16.893Z,81.93
2019-02-02T08:51:46.219Z,83.00
2019-02-02T08:54:15.439Z,67.50
2019-02-02T08:56:44.625Z,73.70
2019-02-02T08:59:15.121Z,75.43
2019-02-02T09:01:44.290Z,83.77
2019-02-02T09:04:13.541Z,83.90
2019-02-02T09:06:42.735Z,91.30
2019-02-02T09:09:11.970Z,75.37
2019-02-02T09:11:41.201Z,74.80
2019-02-02T09:14:10.419Z,69.87
2019-02-02T09:16:40.908Z,72.00
2019-02-02T09:19:10.088Z,74.60
2019-02-02T09:21:39.276Z,68.43
2019-02-02T09:24:09.776Z,69.70
2019-02-02T09:26:40.089Z,69.70
2019-02-02T09:29:11.754Z,63.63
2019-02-02T09:31:40.927Z,70.63
2019-02-02T09:34:10.157Z,71.53
2019-02-02T09:36:39.365Z,67.23
2019-02-02T09:39:08.770Z,64.07
2019-02-02T09:41:40.724Z,62.40
2019-02-02T09:44:07.144Z,66.60
2019-02-02T09:46:36.334Z,61.73
2019-02-02T09:49:05.525Z,63.03
2019-02-02T09:51:35.943Z,55.73
2019-02-02T09:54:05.124Z,53.50
2019-02-02T09:56:34.284Z,65.70
2019-02-02T09:59:05.916Z,59.63
2019-02-02T10:01:35.108Z,68.37
2019-02-02T10:04:04.295Z,63.63
2019-02-02T10:06:33.525Z,63.17
2019-02-02T10:09:02.717Z,59.30
2019-02-02T10:11:31.900Z,57.63
2019-02-02T10:14:03.768Z,49.33
2019-02-02T10:16:34.237Z,60.07
2019-02-02T10:19:03.435Z,55.40
2019-02-02T10:21:32.617Z,60.80
2019-02-02T10:24:03.044Z,55.30
2019-02-02T10:26:32.221Z,58.47
2019-02-02T10:29:01.389Z,59.43
2019-02-02T10:31:39.094Z,58.63
2019-02-02T10:33:59.780Z,59.47
2019-02-02T10:36:29.012Z,63.17
2019-02-02T10:38:58.916Z,61.60
2019-02-02T10:41:28.163Z,60.10
2019-02-02T10:43:57.359Z,65.33
2019-02-02T10:46:26.569Z,60.60
2019-02-02T10:48:56.140Z,63.97
2019-02-02T10:51:25.600Z,60.47
2019-02-02T10:53:56.033Z,57.07
2019-02-02T10:56:25.242Z,64.60
2019-02-02T10:58:54.428Z,60.37
2019-02-02T11:01:23.741Z,63.67
2019-02-02T11:03:53.005Z,68.80
2019-02-02T11:06:22.295Z,54.73
2019-02-02T11:08:52.846Z,59.17
2019-02-02T11:11:22.153Z,64.87
2019-02-02T11:13:51.374Z,60.83
2019-02-02T11:16:22.115Z,63.07
2019-02-02T11:18:51.331Z,67.63
2019-02-02T11:21:20.613Z,72.73
2019-02-02T11:23:51.131Z,70.03
2019-02-02T11:26:20.322Z,64.93
2019-02-02T11:28:50.984Z,62.60
2019-02-02T11:31:20.121Z,58.47
2019-02-02T11:33:49.312Z,61.83
2019-02-02T11:36:18.515Z,62.20
2019-02-02T11:38:47.852Z,65.97
2019-02-02T11:41:17.112Z,56.70
2019-02-02T11:43:46.316Z,59.73
2019-02-02T11:46:15.519Z,66.10
2019-02-02T11:48:44.710Z,61.50
2019-02-02T11:51:15.276Z,74.47
2019-02-02T11:53:44.476Z,70.40
2019-02-02T11:56:13.640Z,80.93
2019-02-02T11:58:44.095Z,76.57
2019-02-02T12:01:13.292Z,70.07
2019-02-02T12:03:42.464Z,68.20
2019-02-02T12:06:11.656Z,64.90
2019-02-02T12:08:40.882Z,62.03
2019-02-02T12:11:10.155Z,75.43
2019-02-02T12:13:39.360Z,75.93
2019-02-02T12:16:08.565Z,67.23
2019-02-02T12:18:39.177Z,74.97
2019-02-02T12:21:08.364Z,77.63
2019-02-02T12:23:37.605Z,80.57
2019-02-02T12:26:06.814Z,83.47
2019-02-02T12:28:36.007Z,89.83
2019-02-02T12:31:05.192Z,87.13
2019-02-02T12:33:34.451Z,84.53
2019-02-02T12:36:03.641Z,95.20
2019-02-02T12:38:32.860Z,94.80
2019-02-02T12:41:02.032Z,86.63
2019-02-02T12:43:31.304Z,83.63
2019-02-02T12:46:00.527Z,88.23
2019-02-02T12:48:32.167Z,90.10
2019-02-02T12:50:59.420Z,86.73
2019-02-02T12:53:28.658Z,88.90
2019-02-02T12:55:57.907Z,81.47
2019-02-02T12:58:27.100Z,87.53
2019-02-02T13:00:56.302Z,85.83
2019-02-02T13:03:25.529Z,89.37
2019-02-02T13:05:54.733Z,86.10
2019-02-02T13:08:23.904Z,85.00
2019-02-02T13:10:53.146Z,80.37
2019-02-02T13:13:22.325Z,91.87
2019-02-02T13:15:52.749Z,78.73
2019-02-02T13:18:21.944Z,79.30
2019-02-02T13:20:51.144Z,77.90
2019-02-02T13:23:22.867Z,76.43
2019-02-02T13:25:52.049Z,75.93
2019-02-02T13:28:22.448Z,80.23
2019-02-02T13:30:51.644Z,93.87
2019-02-02T13:33:20.861Z,82.17
2019-02-02T13:35:50.301Z,87.13
2019-02-02T13:38:19.499Z,85.90
2019-02-02T13:40:48.787Z,81.87
2019-02-02T13:43:19.205Z,82.03
2019-02-02T13:45:50.956Z,76.33
2019-02-02T13:48:20.137Z,81.83
2019-02-02T13:50:49.465Z,73.30
2019-02-02T13:53:18.584Z,79.37
2019-02-02T13:55:49.081Z,81.13
2019-02-02T13:58:18.298Z,83.73
2019-02-02T14:00:47.461Z,75.43
2019-02-02T14:03:17.992Z,71.40
2019-02-02T14:05:47.234Z,77.90
2019-02-02T14:08:16.376Z,74.73
2019-02-02T14:10:45.565Z,68.87
2019-02-02T14:13:14.753Z,77.63
2019-02-02T14:15:43.949Z,76.80
2019-02-02T14:18:13.994Z,78.03
2019-02-02T14:20:44.528Z,81.67
2019-02-02T14:23:13.732Z,92.03
2019-02-02T14:25:42.928Z,89.20
2019-02-02T14:28:12.135Z,80.37
2019-02-02T14:30:42.683Z,84.87
2019-02-02T14:33:14.411Z,86.20
2019-02-02T14:35:41.039Z,91.97
2019-02-02T14:38:11.477Z,78.47
2019-02-02T14:40:40.646Z,91.90
2019-02-02T14:43:09.947Z,94.50
2019-02-02T14:45:39.081Z,88.77
2019-02-02T14:48:08.269Z,87.03
2019-02-02T14:50:37.432Z,88.73
2019-02-02T14:53:09.120Z,90.73
2019-02-02T14:55:38.332Z,96.87
2019-02-02T14:58:08.716Z,93.57
2019-02-02T15:00:39.160Z,117.87
2019-02-02T15:03:08.363Z,101.77
2019-02-02T15:05:42.909Z,100.30
2019-02-02T15:08:08.019Z,103.87
2019-02-02T15:10:38.465Z,102.07
2019-02-02T15:13:07.668Z,113.37
2019-02-02T15:15:36.848Z,109.37
2019-02-02T15:18:07.448Z,109.83
2019-02-02T15:20:37.006Z,108.77
2019-02-02T15:23:06.554Z,113.30
2019-02-02T15:25:36.965Z,99.03
2019-02-02T15:28:06.142Z,95.70
2019-02-02T15:30:37.733Z,101.93
2019-02-02T15:33:09.710Z,102.60
2019-02-02T15:35:38.912Z,98.60
2019-02-02T15:38:08.124Z,108.00
2019-02-02T15:40:38.619Z,102.17
2019-02-02T15:43:07.796Z,116.47
2019-02-02T15:45:37.044Z,125.80
2019-02-02T15:48:06.239Z,123.80
2019-02-02T15:50:35.468Z,112.97
2019-02-02T15:53:04.690Z,98.10
2019-02-02T15:55:33.899Z,91.17
2019-02-02T15:58:03.137Z,101.80
2019-02-02T16:00:33.183Z,95.10
2019-02-02T16:03:02.368Z,87.93
2019-02-02T16:05:31.765Z,92.03
2019-02-02T16:08:01.680Z,87.07
2019-02-02T16:10:31.080Z,93.93
2019-02-02T16:13:00.276Z,106.77
2019-02-02T16:15:29.478Z,107.50
2019-02-02T16:17:58.695Z,118.37
2019-02-02T16:20:29.011Z,116.77
2019-02-02T16:22:58.647Z,94.43
2019-02-02T16:25:29.020Z,99.07
2019-02-02T16:27:58.258Z,104.47
2019-02-02T16:30:27.639Z,117.83
2019-02-02T16:32:56.925Z,107.40
2019-02-02T16:35:26.122Z,114.43
2019-02-02T16:37:55.454Z,115.77
2019-02-02T16:40:25.271Z,106.93
2019-02-02T16:42:54.472Z,100.47
2019-02-02T16:45:24.784Z,117.97
2019-02-02T16:47:55.244Z,115.53
2019-02-02T16:50:24.691Z,109.20
2019-02-02T16:52:53.956Z,102.60
2019-02-02T16:55:23.177Z,100.67
2019-02-02T16:57:52.395Z,97.47
2019-02-02T17:00:23.959Z,98.70
2019-02-02T17:02:53.169Z,103.50
2019-02-02T17:05:22.367Z,106.03
2019-02-02T17:07:51.672Z,104.83
2019-02-02T17:10:23.161Z,95.33
2019-02-02T17:12:53.676Z,100.73
2019-02-02T17:15:24.205Z,116.53
2019-02-02T17:17:53.385Z,110.50
2019-02-02T17:20:25.042Z,105.30
2019-02-02T17:22:54.258Z,107.03
2019-02-02T17:25:23.450Z,112.23
2019-02-02T17:27:52.676Z,89.20
2019-02-02T17:30:22.371Z,86.70
2019-02-02T17:32:52.219Z,69.27
2019-02-02T17:35:22.693Z,69.17
2019-02-02T17:37:53.092Z,63.47
2019-02-02T17:40:24.544Z,68.40
2019-02-02T17:42:53.882Z,74.43
2019-02-02T17:45:25.669Z,82.57
2019-02-02T17:47:54.873Z,132.03
2019-02-02T17:50:24.394Z,118.37
2019-02-02T17:52:53.623Z,122.20
2019-02-02T17:55:22.827Z,113.23
2019-02-02T17:57:53.309Z,115.67
2019-02-02T18:00:27.057Z,115.50
2019-02-02T18:02:56.329Z,100.77
2019-02-02T18:05:25.597Z,102.63
2019-02-02T18:07:56.052Z,109.00
2019-02-02T18:10:26.370Z,82.40
2019-02-02T18:12:59.594Z,84.80
2019-02-02T18:15:29.045Z,83.17
2019-02-02T18:17:58.476Z,76.27
2019-02-02T18:20:27.675Z,75.30
2019-02-02T18:22:59.556Z,75.90
2019-02-02T18:25:28.964Z,72.63
2019-02-02T18:27:58.311Z,78.57
2019-02-02T18:30:27.580Z,93.47
2019-02-02T18:32:56.824Z,79.13
2019-02-02T18:35:26.419Z,83.17
2019-02-02T18:37:57.873Z,94.03
2019-02-02T18:40:27.201Z,80.30
2019-02-02T18:42:57.660Z,80.43
2019-02-02T18:45:26.999Z,65.07
2019-02-02T18:47:56.838Z,66.77
2019-02-02T18:50:26.043Z,71.30
2019-02-02T18:52:56.492Z,73.93
2019-02-02T18:55:28.402Z,72.30
2019-02-02T18:57:57.823Z,66.60
2019-02-02T19:00:27.268Z,65.83
2019-02-02T19:02:57.716Z,63.47
2019-02-02T19:05:29.465Z,67.43
2019-02-02T19:07:59.732Z,72.67
2019-02-02T19:10:30.024Z,65.67
2019-02-02T19:13:00.132Z,71.80
2019-02-02T19:15:29.726Z,69.87
2019-02-02T19:18:03.176Z,72.33
2019-02-02T19:20:30.752Z,73.07
2019-02-02T19:22:59.996Z,67.57
2019-02-02T19:25:30.524Z,69.97
2019-02-02T19:27:59.753Z,67.37
2019-02-02T19:30:30.146Z,68.80
2019-02-02T19:35:35.055Z,76.07
2019-02-02T19:38:04.288Z,70.07
2019-02-02T19:40:33.473Z,67.07
2019-02-02T19:43:02.652Z,63.63
2019-02-02T19:45:31.821Z,69.90
2019-02-02T19:48:01.024Z,68.93
2019-02-02T19:50:30.208Z,66.17
2019-02-02T19:53:00.711Z,68.07
2019-02-02T19:55:29.869Z,67.10
2019-02-02T19:58:00.621Z,65.47
2019-02-02T20:00:30.545Z,66.27
2019-02-02T20:03:00.075Z,63.17
2019-02-02T20:05:30.501Z,72.77
2019-02-02T20:07:59.728Z,61.07
2019-02-02T20:10:28.974Z,61.50
2019-02-02T20:12:58.217Z,62.40
2019-02-02T20:15:27.461Z,60.90
2019-02-02T20:18:08.922Z,58.20
2019-02-02T20:20:27.131Z,52.33
2019-02-02T20:22:57.609Z,58.03
2019-02-02T20:25:26.849Z,58.13
2019-02-02T20:27:56.158Z,53.37
2019-02-02T20:30:26.670Z,57.07
2019-02-02T20:32:56.589Z,53.53
2019-02-02T20:35:26.085Z,52.07
2019-02-02T20:37:55.300Z,56.53
2019-02-02T20:40:24.801Z,53.17
2019-02-02T20:42:54.058Z,51.67
2019-02-02T20:45:24.366Z,51.50
2019-02-02T20:47:54.038Z,48.73
2019-02-02T20:50:23.275Z,53.83
2019-02-02T20:52:52.517Z,59.37
2019-02-02T20:55:24.184Z,56.23
2019-02-02T20:57:53.407Z,54.57
2019-02-02T21:00:23.427Z,51.50
2019-02-02T21:02:53.033Z,58.43
2019-02-02T21:05:24.018Z,56.13
2019-02-02T21:07:53.404Z,56.93
2019-02-02T21:10:22.772Z,56.73
2019-02-02T21:12:52.039Z,56.53
2019-02-02T21:15:21.250Z,59.90
2019-02-02T21:17:50.453Z,56.90
2019-02-02T21:20:22.056Z,56.90
2019-02-02T21:22:51.275Z,60.17
2019-02-02T21:25:20.494Z,57.27
2019-02-02T21:27:49.964Z,61.90
2019-02-02T21:30:27.793Z,59.90
2019-02-02T21:32:57.846Z,64.47
2019-02-02T21:35:27.182Z,65.63
2019-02-02T21:37:58.313Z,67.17
2019-02-02T21:40:30.969Z,61.60
2019-02-02T21:43:01.429Z,67.87
2019-02-02T21:45:30.665Z,64.97
2019-02-02T21:47:59.901Z,65.50
2019-02-02T21:50:29.109Z,67.67
2019-02-02T21:52:58.335Z,65.63
2019-02-02T21:55:28.204Z,67.67
2019-02-02T21:57:57.404Z,69.30
2019-02-02T22:00:31.135Z,61.47
2019-02-02T22:03:00.381Z,57.83
2019-02-02T22:05:29.589Z,61.93
2019-02-02T22:07:58.805Z,60.97
2019-02-02T22:10:28.057Z,61.50
2019-02-02T22:12:59.824Z,63.90
2019-02-02T22:15:29.095Z,65.33
2019-02-02T22:17:58.268Z,64.23
2019-02-02T22:20:27.576Z,61.73
2019-02-02T22:22:56.765Z,62.17
2019-02-02T22:25:26.933Z,61.40
2019-02-02T22:27:56.166Z,59.23
2019-02-02T22:30:26.248Z,58.63
2019-02-02T22:32:55.477Z,62.90
2019-02-02T22:35:25.902Z,59.83
2019-02-02T22:37:55.076Z,62.23
2019-02-02T22:40:24.607Z,56.37
2019-02-02T22:42:54.037Z,58.77
2019-02-02T22:45:23.071Z,59.63
2019-02-02T22:47:52.278Z,61.17
2019-02-02T22:50:22.290Z,65.23
2019-02-02T22:52:51.521Z,63.70
2019-02-02T22:55:20.888Z,59.10
2019-02-02T22:57:50.109Z,61.00
2019-02-02T23:00:21.978Z,59.80
2019-02-02T23:02:51.204Z,57.17
2019-02-02T23:05:24.343Z,56.57
2019-02-02T23:08:03.096Z,53.07
2019-02-02T23:10:37.792Z,52.70
2019-02-02T23:13:12.436Z,53.90
2019-02-02T23:15:51.008Z,51.37
2019-02-02T23:18:21.511Z,51.43
2019-02-02T23:20:50.720Z,48.57
2019-02-02T23:23:19.944Z,51.37
2019-02-02T23:25:51.590Z,50.93
2019-02-02T23:28:20.936Z,49.37
2019-02-02T23:30:50.148Z,49.50
2019-02-02T23:33:19.334Z,44.57
2019-02-02T23:35:48.506Z,52.20
2019-02-02T23:38:17.863Z,41.60
2019-02-02T23:40:48.449Z,42.67
2019-02-02T23:43:18.915Z,43.73
2019-02-02T23:45:49.448Z,48.70
2019-02-02T23:48:18.621Z,44.90
2019-02-02T23:50:49.983Z,41.10
2019-02-02T23:53:19.949Z,42.70
2019-02-02T23:55:49.160Z,45.50
2019-02-02T23:58:18.357Z,40.37
